sensor_id;sensor_type;location;lat;lon;timestamp;temperature;humidity
62154;DHT22;48140;45.486;9.226;2023-12-20T00:01:31;7.20;99.90
62154;DHT22;48140;45.486;9.226;2023-12-20T00:03:57;7.20;99.90
62154;DHT22;48140;45.486;9.226;2023-12-20T00:08:58;7.30;99.90
62154;DHT22;48140;45.486;9.226;2023-12-20T00:11:23;7.30;99.90
62154;DHT22;48140;45.486;9.226;2023-12-20T00:13:49;7.30;99.90
62154;DHT22;48140;45.486;9.226;2023-12-20T00:16:14;7.30;99.90
62154;DHT22;48140;45.486;9.226;2023-12-20T00:18:40;8.00;99.90
62154;DHT22;48140;45.486;9.226;2023-12-20T00:21:05;7.30;99.90
62154;DHT22;48140;45.486;9.226;2023-12-20T00:23:31;7.40;99.90
62154;DHT22;48140;45.486;9.226;2023-12-20T00:25:56;7.40;99.90
62154;DHT22;48140;45.486;9.226;2023-12-20T00:28:22;7.40;99.90
62154;DHT22;48140;45.486;9.226;2023-12-20T00:30:48;7.20;99.90
62154;DHT22;48140;45.486;9.226;2023-12-20T00:33:13;7.10;99.90
62154;DHT22;48140;45.486;9.226;2023-12-20T00:35:39;7.10;99.90
62154;DHT22;48140;45.486;9.226;2023-12-20T00:38:05;7.00;99.90
62154;DHT22;48140;45.486;9.226;2023-12-20T00:40:32;7.00;99.90
62154;DHT22;48140;45.486;9.226;2023-12-20T00:42:58;6.90;99.90
62154;DHT22;48140;45.486;9.226;2023-12-20T00:45:23;6.90;99.90
62154;DHT22;48140;45.486;9.226;2023-12-20T00:47:49;6.90;99.90
62154;DHT22;48140;45.486;9.226;2023-12-20T00:50:15;7.00;99.90
62154;DHT22;48140;45.486;9.226;2023-12-20T00:52:40;7.00;99.90
62154;DHT22;48140;45.486;9.226;2023-12-20T00:55:06;7.10;99.90
62154;DHT22;48140;45.486;9.226;2023-12-20T00:57:33;7.00;99.90
62154;DHT22;48140;45.486;9.226;2023-12-20T00:59:58;6.90;99.90
62154;DHT22;48140;45.486;9.226;2023-12-20T01:02:24;6.80;99.90
62154;DHT22;48140;45.486;9.226;2023-12-20T01:04:49;6.80;99.90
62154;DHT22;48140;45.486;9.226;2023-12-20T01:07:15;6.90;99.90
62154;DHT22;48140;45.486;9.226;2023-12-20T01:09:40;6.90;99.90
62154;DHT22;48140;45.486;9.226;2023-12-20T01:12:06;7.00;99.90
62154;DHT22;48140;45.486;9.226;2023-12-20T01:14:32;6.90;99.90
62154;DHT22;48140;45.486;9.226;2023-12-20T01:16:57;7.00;99.90
62154;DHT22;48140;45.486;9.226;2023-12-20T01:19:24;7.00;99.90
62154;DHT22;48140;45.486;9.226;2023-12-20T01:21:50;7.00;99.90
62154;DHT22;48140;45.486;9.226;2023-12-20T01:24:15;6.90;99.90
62154;DHT22;48140;45.486;9.226;2023-12-20T01:26:41;6.90;99.90
62154;DHT22;48140;45.486;9.226;2023-12-20T01:29:06;6.90;99.90
62154;DHT22;48140;45.486;9.226;2023-12-20T01:31:32;6.90;99.90
62154;DHT22;48140;45.486;9.226;2023-12-20T01:33:57;6.80;99.90
62154;DHT22;48140;45.486;9.226;2023-12-20T01:36:23;6.80;99.90
62154;DHT22;48140;45.486;9.226;2023-12-20T01:38:48;6.90;99.90
62154;DHT22;48140;45.486;9.226;2023-12-20T01:41:14;6.80;99.90
62154;DHT22;48140;45.486;9.226;2023-12-20T01:43:40;6.80;99.90
62154;DHT22;48140;45.486;9.226;2023-12-20T01:46:08;6.80;99.90
62154;DHT22;48140;45.486;9.226;2023-12-20T01:48:34;6.80;99.90
62154;DHT22;48140;45.486;9.226;2023-12-20T01:51:00;6.90;99.90
62154;DHT22;48140;45.486;9.226;2023-12-20T01:53:26;6.90;99.90
62154;DHT22;48140;45.486;9.226;2023-12-20T01:55:54;6.90;99.90
62154;DHT22;48140;45.486;9.226;2023-12-20T01:58:19;6.90;99.90
62154;DHT22;48140;45.486;9.226;2023-12-20T02:00:45;6.90;99.90
62154;DHT22;48140;45.486;9.226;2023-12-20T02:03:10;7.50;99.90
62154;DHT22;48140;45.486;9.226;2023-12-20T02:05:37;6.90;99.90
62154;DHT22;48140;45.486;9.226;2023-12-20T02:08:03;6.90;99.90
62154;DHT22;48140;45.486;9.226;2023-12-20T02:10:29;7.00;99.90
62154;DHT22;48140;45.486;9.226;2023-12-20T02:12:55;6.90;99.90
62154;DHT22;48140;45.486;9.226;2023-12-20T02:15:20;6.90;99.90
62154;DHT22;48140;45.486;9.226;2023-12-20T02:17:46;6.80;99.90
62154;DHT22;48140;45.486;9.226;2023-12-20T02:20:12;6.80;99.90
62154;DHT22;48140;45.486;9.226;2023-12-20T02:22:37;6.80;99.90
62154;DHT22;48140;45.486;9.226;2023-12-20T02:25:03;6.80;99.90
62154;DHT22;48140;45.486;9.226;2023-12-20T02:27:29;6.80;99.90
62154;DHT22;48140;45.486;9.226;2023-12-20T02:29:55;6.80;99.90
62154;DHT22;48140;45.486;9.226;2023-12-20T02:32:21;6.90;99.90
62154;DHT22;48140;45.486;9.226;2023-12-20T02:34:47;6.90;99.90
62154;DHT22;48140;45.486;9.226;2023-12-20T02:37:13;7.00;99.90
62154;DHT22;48140;45.486;9.226;2023-12-20T02:39:38;7.00;99.90
62154;DHT22;48140;45.486;9.226;2023-12-20T02:42:04;7.00;99.90
62154;DHT22;48140;45.486;9.226;2023-12-20T02:44:29;7.10;99.90
62154;DHT22;48140;45.486;9.226;2023-12-20T02:46:55;7.10;99.90
62154;DHT22;48140;45.486;9.226;2023-12-20T02:49:20;7.00;99.90
62154;DHT22;48140;45.486;9.226;2023-12-20T02:51:46;7.00;99.90
62154;DHT22;48140;45.486;9.226;2023-12-20T02:54:12;7.10;99.90
62154;DHT22;48140;45.486;9.226;2023-12-20T02:56:37;7.00;99.90
62154;DHT22;48140;45.486;9.226;2023-12-20T02:59:03;7.00;99.90
62154;DHT22;48140;45.486;9.226;2023-12-20T03:01:31;7.10;99.90
62154;DHT22;48140;45.486;9.226;2023-12-20T03:03:56;7.10;99.90
62154;DHT22;48140;45.486;9.226;2023-12-20T03:06:22;7.10;99.90
62154;DHT22;48140;45.486;9.226;2023-12-20T03:08:48;7.20;99.90
62154;DHT22;48140;45.486;9.226;2023-12-20T03:11:13;7.20;99.90
62154;DHT22;48140;45.486;9.226;2023-12-20T03:13:39;7.20;99.90
62154;DHT22;48140;45.486;9.226;2023-12-20T03:16:10;7.20;99.90
62154;DHT22;48140;45.486;9.226;2023-12-20T03:18:36;7.10;99.90
62154;DHT22;48140;45.486;9.226;2023-12-20T03:21:01;7.10;99.90
62154;DHT22;48140;45.486;9.226;2023-12-20T03:23:27;7.10;99.90
62154;DHT22;48140;45.486;9.226;2023-12-20T03:25:52;7.10;99.90
62154;DHT22;48140;45.486;9.226;2023-12-20T03:28:18;7.10;99.90
62154;DHT22;48140;45.486;9.226;2023-12-20T03:30:44;7.00;99.90
62154;DHT22;48140;45.486;9.226;2023-12-20T03:33:10;7.00;99.90
62154;DHT22;48140;45.486;9.226;2023-12-20T03:35:35;6.90;99.90
62154;DHT22;48140;45.486;9.226;2023-12-20T03:38:01;6.80;99.90
62154;DHT22;48140;45.486;9.226;2023-12-20T03:40:27;6.90;99.90
62154;DHT22;48140;45.486;9.226;2023-12-20T03:42:52;6.90;99.90
62154;DHT22;48140;45.486;9.226;2023-12-20T03:45:18;7.00;99.90
62154;DHT22;48140;45.486;9.226;2023-12-20T03:47:43;7.00;99.90
62154;DHT22;48140;45.486;9.226;2023-12-20T03:50:09;7.00;99.90
62154;DHT22;48140;45.486;9.226;2023-12-20T03:52:34;7.00;99.90
62154;DHT22;48140;45.486;9.226;2023-12-20T03:55:00;6.90;99.90
62154;DHT22;48140;45.486;9.226;2023-12-20T03:57:25;6.90;99.90
62154;DHT22;48140;45.486;9.226;2023-12-20T03:59:51;6.90;99.90
62154;DHT22;48140;45.486;9.226;2023-12-20T04:02:16;6.90;99.90
62154;DHT22;48140;45.486;9.226;2023-12-20T04:04:43;6.80;99.90
62154;DHT22;48140;45.486;9.226;2023-12-20T04:07:09;6.70;99.90
62154;DHT22;48140;45.486;9.226;2023-12-20T04:09:34;6.70;99.90
62154;DHT22;48140;45.486;9.226;2023-12-20T04:12:01;6.60;99.90
62154;DHT22;48140;45.486;9.226;2023-12-20T04:14:26;6.50;99.90
62154;DHT22;48140;45.486;9.226;2023-12-20T04:16:52;6.50;99.90
62154;DHT22;48140;45.486;9.226;2023-12-20T04:19:17;6.50;99.90
62154;DHT22;48140;45.486;9.226;2023-12-20T04:21:43;6.40;99.90
62154;DHT22;48140;45.486;9.226;2023-12-20T04:24:08;6.30;99.90
62154;DHT22;48140;45.486;9.226;2023-12-20T04:26:34;6.30;99.90
62154;DHT22;48140;45.486;9.226;2023-12-20T04:28:59;6.30;99.90
62154;DHT22;48140;45.486;9.226;2023-12-20T04:31:25;6.30;99.90
62154;DHT22;48140;45.486;9.226;2023-12-20T04:33:50;6.30;99.90
62154;DHT22;48140;45.486;9.226;2023-12-20T04:36:16;6.30;99.90
62154;DHT22;48140;45.486;9.226;2023-12-20T04:38:42;6.30;99.90
62154;DHT22;48140;45.486;9.226;2023-12-20T04:41:07;6.40;99.90
62154;DHT22;48140;45.486;9.226;2023-12-20T04:43:33;6.40;99.90
62154;DHT22;48140;45.486;9.226;2023-12-20T04:45:58;6.40;99.90
62154;DHT22;48140;45.486;9.226;2023-12-20T04:48:23;6.40;99.90
62154;DHT22;48140;45.486;9.226;2023-12-20T04:50:49;6.40;99.90
62154;DHT22;48140;45.486;9.226;2023-12-20T04:53:15;6.40;99.90
62154;DHT22;48140;45.486;9.226;2023-12-20T04:55:40;6.40;99.90
62154;DHT22;48140;45.486;9.226;2023-12-20T04:58:05;6.40;99.90
62154;DHT22;48140;45.486;9.226;2023-12-20T05:00:31;6.40;99.90
62154;DHT22;48140;45.486;9.226;2023-12-20T05:02:56;6.40;99.90
62154;DHT22;48140;45.486;9.226;2023-12-20T05:05:22;6.50;99.90
62154;DHT22;48140;45.486;9.226;2023-12-20T05:07:47;6.40;99.90
62154;DHT22;48140;45.486;9.226;2023-12-20T05:10:13;6.40;99.90
62154;DHT22;48140;45.486;9.226;2023-12-20T05:12:38;6.40;99.90
62154;DHT22;48140;45.486;9.226;2023-12-20T05:15:05;6.30;99.90
62154;DHT22;48140;45.486;9.226;2023-12-20T05:17:31;6.30;99.90
62154;DHT22;48140;45.486;9.226;2023-12-20T05:19:56;6.30;99.90
62154;DHT22;48140;45.486;9.226;2023-12-20T05:22:22;6.30;99.90
62154;DHT22;48140;45.486;9.226;2023-12-20T05:24:47;6.40;99.90
62154;DHT22;48140;45.486;9.226;2023-12-20T05:27:13;6.40;99.90
62154;DHT22;48140;45.486;9.226;2023-12-20T05:29:38;6.40;99.90
62154;DHT22;48140;45.486;9.226;2023-12-20T05:32:04;6.40;99.90
62154;DHT22;48140;45.486;9.226;2023-12-20T05:34:30;6.50;99.90
62154;DHT22;48140;45.486;9.226;2023-12-20T05:36:55;6.50;99.90
62154;DHT22;48140;45.486;9.226;2023-12-20T05:39:21;6.50;99.90
62154;DHT22;48140;45.486;9.226;2023-12-20T05:41:47;6.50;99.90
62154;DHT22;48140;45.486;9.226;2023-12-20T05:44:13;6.50;99.90
62154;DHT22;48140;45.486;9.226;2023-12-20T05:46:38;6.50;99.90
62154;DHT22;48140;45.486;9.226;2023-12-20T05:49:05;6.40;99.90
62154;DHT22;48140;45.486;9.226;2023-12-20T05:51:31;6.50;99.90
62154;DHT22;48140;45.486;9.226;2023-12-20T05:53:58;6.50;99.90
62154;DHT22;48140;45.486;9.226;2023-12-20T05:56:24;6.60;99.90
62154;DHT22;48140;45.486;9.226;2023-12-20T05:58:49;6.50;99.90
62154;DHT22;48140;45.486;9.226;2023-12-20T06:01:15;6.60;99.90
62154;DHT22;48140;45.486;9.226;2023-12-20T06:03:42;6.60;99.90
62154;DHT22;48140;45.486;9.226;2023-12-20T06:06:08;6.60;99.90
62154;DHT22;48140;45.486;9.226;2023-12-20T06:08:34;6.60;99.90
62154;DHT22;48140;45.486;9.226;2023-12-20T06:10:59;6.60;99.90
62154;DHT22;48140;45.486;9.226;2023-12-20T06:13:25;6.60;99.90
62154;DHT22;48140;45.486;9.226;2023-12-20T06:15:51;6.80;99.90
62154;DHT22;48140;45.486;9.226;2023-12-20T06:18:17;6.70;99.90
62154;DHT22;48140;45.486;9.226;2023-12-20T06:20:42;6.70;99.90
62154;DHT22;48140;45.486;9.226;2023-12-20T06:23:09;6.70;99.90
62154;DHT22;48140;45.486;9.226;2023-12-20T06:25:35;6.70;99.90
62154;DHT22;48140;45.486;9.226;2023-12-20T06:28:00;6.70;99.90
62154;DHT22;48140;45.486;9.226;2023-12-20T06:30:27;6.70;99.90
62154;DHT22;48140;45.486;9.226;2023-12-20T06:32:53;6.80;99.90
62154;DHT22;48140;45.486;9.226;2023-12-20T06:35:20;6.70;99.90
62154;DHT22;48140;45.486;9.226;2023-12-20T06:37:45;6.70;99.90
62154;DHT22;48140;45.486;9.226;2023-12-20T06:40:14;6.80;99.90
62154;DHT22;48140;45.486;9.226;2023-12-20T06:42:39;6.80;99.90
62154;DHT22;48140;45.486;9.226;2023-12-20T06:45:05;6.80;99.90
62154;DHT22;48140;45.486;9.226;2023-12-20T06:47:31;6.80;99.90
62154;DHT22;48140;45.486;9.226;2023-12-20T06:49:57;6.80;99.90
62154;DHT22;48140;45.486;9.226;2023-12-20T06:52:23;6.80;99.90
62154;DHT22;48140;45.486;9.226;2023-12-20T06:54:48;6.90;99.90
62154;DHT22;48140;45.486;9.226;2023-12-20T06:57:14;6.90;99.90
62154;DHT22;48140;45.486;9.226;2023-12-20T06:59:43;6.90;99.90
62154;DHT22;48140;45.486;9.226;2023-12-20T07:02:09;7.00;99.90
62154;DHT22;48140;45.486;9.226;2023-12-20T07:04:39;7.00;99.90
62154;DHT22;48140;45.486;9.226;2023-12-20T07:07:04;7.10;99.90
62154;DHT22;48140;45.486;9.226;2023-12-20T07:09:30;7.00;99.90
62154;DHT22;48140;45.486;9.226;2023-12-20T07:11:55;7.10;99.90
62154;DHT22;48140;45.486;9.226;2023-12-20T07:14:21;7.10;99.90
62154;DHT22;48140;45.486;9.226;2023-12-20T07:16:47;7.10;99.90
62154;DHT22;48140;45.486;9.226;2023-12-20T07:19:12;7.10;99.90
62154;DHT22;48140;45.486;9.226;2023-12-20T07:21:38;7.10;99.90
62154;DHT22;48140;45.486;9.226;2023-12-20T07:24:04;7.20;99.90
62154;DHT22;48140;45.486;9.226;2023-12-20T07:26:29;7.20;99.90
62154;DHT22;48140;45.486;9.226;2023-12-20T07:28:55;7.20;99.90
62154;DHT22;48140;45.486;9.226;2023-12-20T07:31:20;7.20;99.90
62154;DHT22;48140;45.486;9.226;2023-12-20T07:33:46;7.20;99.90
62154;DHT22;48140;45.486;9.226;2023-12-20T07:36:12;7.30;99.90
62154;DHT22;48140;45.486;9.226;2023-12-20T07:38:37;7.30;99.90
62154;DHT22;48140;45.486;9.226;2023-12-20T07:41:06;7.40;99.90
62154;DHT22;48140;45.486;9.226;2023-12-20T07:43:31;7.40;99.90
62154;DHT22;48140;45.486;9.226;2023-12-20T07:45:57;7.40;99.90
62154;DHT22;48140;45.486;9.226;2023-12-20T07:48:22;7.60;99.90
62154;DHT22;48140;45.486;9.226;2023-12-20T07:50:48;7.60;99.90
62154;DHT22;48140;45.486;9.226;2023-12-20T07:53:13;7.70;99.90
62154;DHT22;48140;45.486;9.226;2023-12-20T07:55:39;7.70;99.90
62154;DHT22;48140;45.486;9.226;2023-12-20T07:58:04;8.00;99.90
62154;DHT22;48140;45.486;9.226;2023-12-20T08:00:30;7.90;99.90
62154;DHT22;48140;45.486;9.226;2023-12-20T08:02:56;7.90;99.90
62154;DHT22;48140;45.486;9.226;2023-12-20T08:05:21;8.00;99.90
62154;DHT22;48140;45.486;9.226;2023-12-20T08:07:47;8.00;99.90
62154;DHT22;48140;45.486;9.226;2023-12-20T08:10:12;8.00;99.90
62154;DHT22;48140;45.486;9.226;2023-12-20T08:12:38;8.10;99.90
62154;DHT22;48140;45.486;9.226;2023-12-20T08:15:05;8.10;99.90
62154;DHT22;48140;45.486;9.226;2023-12-20T08:17:30;8.20;99.90
62154;DHT22;48140;45.486;9.226;2023-12-20T08:19:56;8.40;99.90
62154;DHT22;48140;45.486;9.226;2023-12-20T08:22:21;8.30;99.90
62154;DHT22;48140;45.486;9.226;2023-12-20T08:24:47;8.40;99.90
62154;DHT22;48140;45.486;9.226;2023-12-20T08:27:13;8.40;99.90
62154;DHT22;48140;45.486;9.226;2023-12-20T08:29:38;8.30;99.90
62154;DHT22;48140;45.486;9.226;2023-12-20T08:32:04;8.40;99.90
62154;DHT22;48140;45.486;9.226;2023-12-20T08:34:30;8.40;99.90
62154;DHT22;48140;45.486;9.226;2023-12-20T08:36:55;8.50;99.90
62154;DHT22;48140;45.486;9.226;2023-12-20T08:39:21;8.50;99.90
62154;DHT22;48140;45.486;9.226;2023-12-20T08:41:46;8.60;99.90
62154;DHT22;48140;45.486;9.226;2023-12-20T08:44:12;8.60;99.90
62154;DHT22;48140;45.486;9.226;2023-12-20T08:46:38;8.70;99.90
62154;DHT22;48140;45.486;9.226;2023-12-20T08:49:04;8.60;99.90
62154;DHT22;48140;45.486;9.226;2023-12-20T08:51:30;8.60;99.90
62154;DHT22;48140;45.486;9.226;2023-12-20T08:53:55;8.70;99.90
62154;DHT22;48140;45.486;9.226;2023-12-20T08:56:21;8.70;99.90
62154;DHT22;48140;45.486;9.226;2023-12-20T08:58:46;8.80;99.90
62154;DHT22;48140;45.486;9.226;2023-12-20T09:01:12;8.90;99.90
62154;DHT22;48140;45.486;9.226;2023-12-20T09:03:38;8.90;99.90
62154;DHT22;48140;45.486;9.226;2023-12-20T09:06:04;8.90;99.90
62154;DHT22;48140;45.486;9.226;2023-12-20T09:08:30;8.90;99.90
62154;DHT22;48140;45.486;9.226;2023-12-20T09:10:56;8.90;99.90
62154;DHT22;48140;45.486;9.226;2023-12-20T09:13:22;8.90;99.90
62154;DHT22;48140;45.486;9.226;2023-12-20T09:15:54;8.90;99.90
62154;DHT22;48140;45.486;9.226;2023-12-20T09:18:19;8.80;99.90
62154;DHT22;48140;45.486;9.226;2023-12-20T09:20:45;8.80;99.90
62154;DHT22;48140;45.486;9.226;2023-12-20T09:23:10;8.80;99.90
62154;DHT22;48140;45.486;9.226;2023-12-20T09:25:37;8.70;99.90
62154;DHT22;48140;45.486;9.226;2023-12-20T09:28:02;8.60;99.90
62154;DHT22;48140;45.486;9.226;2023-12-20T09:30:28;8.50;99.90
62154;DHT22;48140;45.486;9.226;2023-12-20T09:32:54;8.40;99.90
62154;DHT22;48140;45.486;9.226;2023-12-20T09:35:20;8.40;99.90
62154;DHT22;48140;45.486;9.226;2023-12-20T09:37:45;8.40;99.90
62154;DHT22;48140;45.486;9.226;2023-12-20T09:40:15;8.20;99.90
62154;DHT22;48140;45.486;9.226;2023-12-20T09:43:00;8.20;99.90
62154;DHT22;48140;45.486;9.226;2023-12-20T09:45:28;8.20;99.90
62154;DHT22;48140;45.486;9.226;2023-12-20T09:47:55;8.30;99.90
62154;DHT22;48140;45.486;9.226;2023-12-20T09:50:22;8.30;99.90
62154;DHT22;48140;45.486;9.226;2023-12-20T09:52:49;8.20;99.90
62154;DHT22;48140;45.486;9.226;2023-12-20T09:55:15;8.30;99.90
62154;DHT22;48140;45.486;9.226;2023-12-20T09:57:42;8.30;99.90
62154;DHT22;48140;45.486;9.226;2023-12-20T10:00:08;8.20;99.90
62154;DHT22;48140;45.486;9.226;2023-12-20T10:02:33;8.30;99.90
62154;DHT22;48140;45.486;9.226;2023-12-20T10:04:59;8.40;99.90
62154;DHT22;48140;45.486;9.226;2023-12-20T10:07:25;8.40;99.90
62154;DHT22;48140;45.486;9.226;2023-12-20T10:09:51;8.60;99.90
62154;DHT22;48140;45.486;9.226;2023-12-20T10:12:19;8.70;99.90
62154;DHT22;48140;45.486;9.226;2023-12-20T10:14:45;8.60;99.90
62154;DHT22;48140;45.486;9.226;2023-12-20T10:17:10;8.80;99.90
62154;DHT22;48140;45.486;9.226;2023-12-20T10:19:36;9.00;99.90
62154;DHT22;48140;45.486;9.226;2023-12-20T10:22:04;9.20;99.90
62154;DHT22;48140;45.486;9.226;2023-12-20T10:24:29;9.40;99.90
62154;DHT22;48140;45.486;9.226;2023-12-20T10:27:05;9.60;99.90
62154;DHT22;48140;45.486;9.226;2023-12-20T10:29:37;9.50;99.90
62154;DHT22;48140;45.486;9.226;2023-12-20T10:32:44;9.40;99.90
62154;DHT22;48140;45.486;9.226;2023-12-20T10:34:51;9.30;99.90
62154;DHT22;48140;45.486;9.226;2023-12-20T10:37:17;9.40;99.90
62154;DHT22;48140;45.486;9.226;2023-12-20T10:39:43;9.60;99.90
62154;DHT22;48140;45.486;9.226;2023-12-20T10:42:09;9.80;99.90
62154;DHT22;48140;45.486;9.226;2023-12-20T10:44:36;10.00;99.90
62154;DHT22;48140;45.486;9.226;2023-12-20T10:47:03;10.50;99.90
62154;DHT22;48140;45.486;9.226;2023-12-20T10:49:29;11.00;99.90
62154;DHT22;48140;45.486;9.226;2023-12-20T10:51:55;11.20;99.90
62154;DHT22;48140;45.486;9.226;2023-12-20T10:54:22;10.90;99.90
62154;DHT22;48140;45.486;9.226;2023-12-20T10:56:48;10.70;99.90
62154;DHT22;48140;45.486;9.226;2023-12-20T10:59:15;10.60;99.70
62154;DHT22;48140;45.486;9.226;2023-12-20T11:01:43;10.30;99.40
62154;DHT22;48140;45.486;9.226;2023-12-20T11:04:09;10.40;99.60
62154;DHT22;48140;45.486;9.226;2023-12-20T11:06:36;10.40;99.20
62154;DHT22;48140;45.486;9.226;2023-12-20T11:09:12;10.20;99.90
62154;DHT22;48140;45.486;9.226;2023-12-20T11:11:42;10.30;99.90
62154;DHT22;48140;45.486;9.226;2023-12-20T11:14:13;10.10;99.50
62154;DHT22;48140;45.486;9.226;2023-12-20T11:16:41;9.90;99.90
62154;DHT22;48140;45.486;9.226;2023-12-20T11:19:06;10.20;99.90
62154;DHT22;48140;45.486;9.226;2023-12-20T11:21:32;10.20;99.90
62154;DHT22;48140;45.486;9.226;2023-12-20T11:23:58;10.20;99.90
62154;DHT22;48140;45.486;9.226;2023-12-20T11:26:27;10.10;99.90
62154;DHT22;48140;45.486;9.226;2023-12-20T11:28:54;10.10;99.90
62154;DHT22;48140;45.486;9.226;2023-12-20T11:31:19;9.70;99.90
62154;DHT22;48140;45.486;9.226;2023-12-20T11:33:45;9.60;99.90
62154;DHT22;48140;45.486;9.226;2023-12-20T11:36:14;9.60;99.90
62154;DHT22;48140;45.486;9.226;2023-12-20T11:39:01;9.70;99.90
62154;DHT22;48140;45.486;9.226;2023-12-20T11:41:29;9.70;99.90
62154;DHT22;48140;45.486;9.226;2023-12-20T11:43:55;10.00;99.30
62154;DHT22;48140;45.486;9.226;2023-12-20T11:46:21;10.60;98.40
62154;DHT22;48140;45.486;9.226;2023-12-20T11:48:47;11.00;96.30
62154;DHT22;48140;45.486;9.226;2023-12-20T11:51:13;12.10;94.20
62154;DHT22;48140;45.486;9.226;2023-12-20T11:53:39;12.90;90.90
62154;DHT22;48140;45.486;9.226;2023-12-20T11:56:05;13.10;85.70
62154;DHT22;48140;45.486;9.226;2023-12-20T11:58:31;13.30;84.50
62154;DHT22;48140;45.486;9.226;2023-12-20T12:00:57;13.90;80.70
62154;DHT22;48140;45.486;9.226;2023-12-20T12:03:22;13.80;75.10
62154;DHT22;48140;45.486;9.226;2023-12-20T12:05:49;13.80;76.50
62154;DHT22;48140;45.486;9.226;2023-12-20T12:08:14;13.70;75.80
62154;DHT22;48140;45.486;9.226;2023-12-20T12:10:40;13.30;71.00
62154;DHT22;48140;45.486;9.226;2023-12-20T12:13:06;12.80;73.70
62154;DHT22;48140;45.486;9.226;2023-12-20T12:15:31;12.40;74.40
62154;DHT22;48140;45.486;9.226;2023-12-20T12:17:57;12.40;75.90
62154;DHT22;48140;45.486;9.226;2023-12-20T12:20:24;12.70;74.30
62154;DHT22;48140;45.486;9.226;2023-12-20T12:23:02;12.50;74.90
62154;DHT22;48140;45.486;9.226;2023-12-20T12:25:29;12.20;76.50
62154;DHT22;48140;45.486;9.226;2023-12-20T12:27:55;12.10;77.70
62154;DHT22;48140;45.486;9.226;2023-12-20T12:30:21;12.00;77.80
62154;DHT22;48140;45.486;9.226;2023-12-20T12:32:47;11.70;79.20
62154;DHT22;48140;45.486;9.226;2023-12-20T12:35:13;11.60;81.90
62154;DHT22;48140;45.486;9.226;2023-12-20T12:37:39;11.60;82.70
62154;DHT22;48140;45.486;9.226;2023-12-20T12:40:06;11.90;83.80
62154;DHT22;48140;45.486;9.226;2023-12-20T12:42:31;11.80;85.00
62154;DHT22;48140;45.486;9.226;2023-12-20T12:44:57;12.30;84.00
62154;DHT22;48140;45.486;9.226;2023-12-20T12:47:22;12.70;83.40
62154;DHT22;48140;45.486;9.226;2023-12-20T12:49:49;13.90;78.80
62154;DHT22;48140;45.486;9.226;2023-12-20T12:52:16;15.20;73.20
62154;DHT22;48140;45.486;9.226;2023-12-20T12:54:42;16.10;67.90
62154;DHT22;48140;45.486;9.226;2023-12-20T12:57:08;16.10;66.60
62154;DHT22;48140;45.486;9.226;2023-12-20T12:59:33;16.20;63.70
62154;DHT22;48140;45.486;9.226;2023-12-20T13:01:59;16.40;62.80
62154;DHT22;48140;45.486;9.226;2023-12-20T13:04:24;16.80;60.50
62154;DHT22;48140;45.486;9.226;2023-12-20T13:06:50;17.20;58.70
62154;DHT22;48140;45.486;9.226;2023-12-20T13:09:15;17.30;57.60
62154;DHT22;48140;45.486;9.226;2023-12-20T13:11:41;17.40;56.70
62154;DHT22;48140;45.486;9.226;2023-12-20T13:14:07;16.80;56.40
62154;DHT22;48140;45.486;9.226;2023-12-20T13:16:36;17.20;56.50
62154;DHT22;48140;45.486;9.226;2023-12-20T13:19:01;17.20;55.80
62154;DHT22;48140;45.486;9.226;2023-12-20T13:21:27;16.80;56.40
62154;DHT22;48140;45.486;9.226;2023-12-20T13:23:52;16.90;56.70
62154;DHT22;48140;45.486;9.226;2023-12-20T13:26:19;16.30;57.30
62154;DHT22;48140;45.486;9.226;2023-12-20T13:28:44;16.00;58.40
62154;DHT22;48140;45.486;9.226;2023-12-20T13:31:10;16.20;57.90
62154;DHT22;48140;45.486;9.226;2023-12-20T13:33:35;16.50;57.20
62154;DHT22;48140;45.486;9.226;2023-12-20T13:36:01;17.10;55.60
62154;DHT22;48140;45.486;9.226;2023-12-20T13:38:27;17.20;55.30
62154;DHT22;48140;45.486;9.226;2023-12-20T13:40:52;16.60;56.30
62154;DHT22;48140;45.486;9.226;2023-12-20T13:43:18;16.90;55.70
62154;DHT22;48140;45.486;9.226;2023-12-20T13:45:46;17.10;55.10
62154;DHT22;48140;45.486;9.226;2023-12-20T13:48:12;16.50;56.20
62154;DHT22;48140;45.486;9.226;2023-12-20T13:50:37;15.80;56.80
62154;DHT22;48140;45.486;9.226;2023-12-20T13:53:03;16.10;57.30
62154;DHT22;48140;45.486;9.226;2023-12-20T13:55:29;16.60;56.00
62154;DHT22;48140;45.486;9.226;2023-12-20T13:57:56;17.60;53.40
62154;DHT22;48140;45.486;9.226;2023-12-20T14:00:22;17.40;53.50
62154;DHT22;48140;45.486;9.226;2023-12-20T14:02:47;17.00;53.80
62154;DHT22;48140;45.486;9.226;2023-12-20T14:05:14;16.60;55.10
62154;DHT22;48140;45.486;9.226;2023-12-20T14:07:43;16.20;55.40
62154;DHT22;48140;45.486;9.226;2023-12-20T14:10:11;15.50;57.10
62154;DHT22;48140;45.486;9.226;2023-12-20T14:12:37;15.20;58.30
62154;DHT22;48140;45.486;9.226;2023-12-20T14:15:03;15.20;58.80
62154;DHT22;48140;45.486;9.226;2023-12-20T14:17:31;15.80;58.00
62154;DHT22;48140;45.486;9.226;2023-12-20T14:19:57;15.90;58.10
62154;DHT22;48140;45.486;9.226;2023-12-20T14:22:22;16.30;56.70
62154;DHT22;48140;45.486;9.226;2023-12-20T14:24:50;16.20;56.80
62154;DHT22;48140;45.486;9.226;2023-12-20T14:27:15;16.20;56.70
62154;DHT22;48140;45.486;9.226;2023-12-20T14:29:41;16.70;55.60
62154;DHT22;48140;45.486;9.226;2023-12-20T14:32:06;16.40;56.70
62154;DHT22;48140;45.486;9.226;2023-12-20T14:34:32;16.60;56.10
62154;DHT22;48140;45.486;9.226;2023-12-20T14:36:57;16.20;56.90
62154;DHT22;48140;45.486;9.226;2023-12-20T14:39:24;16.40;57.10
62154;DHT22;48140;45.486;9.226;2023-12-20T14:41:49;16.30;57.00
62154;DHT22;48140;45.486;9.226;2023-12-20T14:44:15;15.90;57.60
62154;DHT22;48140;45.486;9.226;2023-12-20T14:46:42;15.50;59.50
62154;DHT22;48140;45.486;9.226;2023-12-20T14:49:07;15.20;61.00
62154;DHT22;48140;45.486;9.226;2023-12-20T14:51:33;15.00;62.50
62154;DHT22;48140;45.486;9.226;2023-12-20T14:53:58;15.10;62.40
62154;DHT22;48140;45.486;9.226;2023-12-20T14:56:24;14.90;63.90
62154;DHT22;48140;45.486;9.226;2023-12-20T14:58:51;14.80;64.00
62154;DHT22;48140;45.486;9.226;2023-12-20T15:01:16;14.40;66.00
62154;DHT22;48140;45.486;9.226;2023-12-20T15:03:46;14.40;66.20
62154;DHT22;48140;45.486;9.226;2023-12-20T15:06:12;14.40;66.20
62154;DHT22;48140;45.486;9.226;2023-12-20T15:08:37;14.30;66.90
62154;DHT22;48140;45.486;9.226;2023-12-20T15:11:03;14.00;67.80
62154;DHT22;48140;45.486;9.226;2023-12-20T15:13:29;13.70;68.70
62154;DHT22;48140;45.486;9.226;2023-12-20T15:15:55;13.30;70.40
62154;DHT22;48140;45.486;9.226;2023-12-20T15:18:20;12.80;72.30
62154;DHT22;48140;45.486;9.226;2023-12-20T15:20:46;12.50;73.70
62154;DHT22;48140;45.486;9.226;2023-12-20T15:23:13;11.50;80.50
62154;DHT22;48140;45.486;9.226;2023-12-20T15:25:38;10.90;89.50
62154;DHT22;48140;45.486;9.226;2023-12-20T15:28:04;10.50;92.80
62154;DHT22;48140;45.486;9.226;2023-12-20T15:30:30;10.20;94.80
62154;DHT22;48140;45.486;9.226;2023-12-20T15:32:55;9.90;97.10
62154;DHT22;48140;45.486;9.226;2023-12-20T15:35:21;9.80;98.10
62154;DHT22;48140;45.486;9.226;2023-12-20T15:37:47;9.70;99.90